createdAt,value
2018-11-03T00:00:21.534Z,7.40
2018-11-03T00:02:49.961Z,4.37
2018-11-03T00:05:18.379Z,4.97
2018-11-03T00:07:47.005Z,5.93
2018-11-03T00:10:15.371Z,8.93
2018-11-03T00:12:43.703Z,5.23
2018-11-03T00:15:12.042Z,6.80
2018-11-03T00:17:40.418Z,6.00
2018-11-03T00:20:08.892Z,6.73
2018-11-03T00:22:37.327Z,9.37
2018-11-03T00:25:06.988Z,4.70
2018-11-03T00:27:35.583Z,4.50
2018-11-03T00:30:04.870Z,6.03
2018-11-03T00:32:33.171Z,4.37
2018-11-03T00:35:01.500Z,4.13
2018-11-03T00:37:29.780Z,5.10
2018-11-03T00:39:58.147Z,3.70
2018-11-03T00:42:26.625Z,7.27
2018-11-03T00:44:54.912Z,6.07
2018-11-03T00:47:23.288Z,4.13
2018-11-03T00:49:51.618Z,4.33
2018-11-03T00:52:19.939Z,4.80
2018-11-03T00:54:48.290Z,4.77
2018-11-03T00:57:16.606Z,7.00
2018-11-03T00:59:44.925Z,6.60
2018-11-03T01:02:13.243Z,2.83
2018-11-03T01:04:41.629Z,7.00
2018-11-03T01:07:09.948Z,4.80
2018-11-03T01:09:38.280Z,4.67
2018-11-03T01:12:06.637Z,4.57
2018-11-03T01:14:35.320Z,6.03
2018-11-03T01:17:03.855Z,4.03
2018-11-03T01:19:32.307Z,5.17
2018-11-03T01:22:00.620Z,7.13
2018-11-03T01:24:28.912Z,3.40
2018-11-03T01:26:57.228Z,4.23
2018-11-03T01:29:25.631Z,4.33
2018-11-03T01:31:53.970Z,4.23
2018-11-03T01:34:22.417Z,3.97
2018-11-03T01:36:50.727Z,4.03
2018-11-03T01:39:19.102Z,4.13
2018-11-03T01:41:47.440Z,5.20
2018-11-03T01:44:15.822Z,6.87
2018-11-03T01:46:44.186Z,5.30
2018-11-03T01:49:12.547Z,4.00
2018-11-03T01:51:41.317Z,4.03
2018-11-03T01:54:09.835Z,4.67
2018-11-03T01:56:38.172Z,3.53
2018-11-03T01:59:06.539Z,4.70
2018-11-03T02:01:34.951Z,6.63
2018-11-03T02:04:03.477Z,4.00
2018-11-03T02:06:31.792Z,5.00
2018-11-03T02:09:00.084Z,5.20
2018-11-03T02:11:28.386Z,4.57
2018-11-03T02:13:56.695Z,4.87
2018-11-03T02:16:25.134Z,3.60
2018-11-03T02:18:53.437Z,4.33
2018-11-03T02:21:21.820Z,3.63
2018-11-03T02:23:50.124Z,4.80
2018-11-03T02:26:18.481Z,4.17
2018-11-03T02:28:47.047Z,4.03
2018-11-03T02:31:15.379Z,3.47
2018-11-03T02:33:43.811Z,5.03
2018-11-03T02:36:12.096Z,2.83
2018-11-03T02:38:40.435Z,3.90
2018-11-03T02:41:08.791Z,5.50
2018-11-03T02:43:37.122Z,3.30
2018-11-03T02:46:05.658Z,6.23
2018-11-03T02:48:33.984Z,4.70
2018-11-03T02:51:02.518Z,4.37
2018-11-03T02:53:31.067Z,5.13
2018-11-03T02:55:59.348Z,4.83
2018-11-03T02:58:27.686Z,6.33
2018-11-03T03:00:56.061Z,4.33
2018-11-03T03:03:24.372Z,6.07
2018-11-03T03:05:52.720Z,6.80
2018-11-03T03:08:21.039Z,8.57
2018-11-03T03:10:49.396Z,4.40
2018-11-03T03:13:17.795Z,5.97
2018-11-03T03:15:46.103Z,4.50
2018-11-03T03:18:14.444Z,4.43
2018-11-03T03:20:42.736Z,4.17
2018-11-03T03:23:11.085Z,5.87
2018-11-03T03:25:39.506Z,3.90
2018-11-03T03:28:07.924Z,6.43
2018-11-03T03:30:36.211Z,8.17
2018-11-03T03:33:04.556Z,5.50
2018-11-03T03:35:32.935Z,3.60
2018-11-03T03:38:01.247Z,4.90
2018-11-03T03:40:30.192Z,3.87
2018-11-03T03:42:58.679Z,4.80
2018-11-03T03:45:27.056Z,6.50
2018-11-03T03:47:55.379Z,4.97
2018-11-03T03:50:23.820Z,4.20
2018-11-03T03:52:52.299Z,6.33
2018-11-03T03:55:20.833Z,5.60
2018-11-03T03:57:49.140Z,4.00
2018-11-03T04:00:17.524Z,4.03
2018-11-03T04:02:45.884Z,5.33
2018-11-03T04:05:14.195Z,4.43
2018-11-03T04:07:42.492Z,6.33
2018-11-03T04:10:11.109Z,7.20
2018-11-03T04:12:39.681Z,6.47
2018-11-03T04:15:08.120Z,5.13
2018-11-03T04:17:36.466Z,5.87
2018-11-03T04:20:05.664Z,6.33
2018-11-03T04:22:33.961Z,5.83
2018-11-03T04:25:02.288Z,6.23
2018-11-03T04:27:30.697Z,7.13
2018-11-03T04:29:59.071Z,6.97
2018-11-03T04:32:27.496Z,5.67
2018-11-03T04:34:55.979Z,7.10
2018-11-03T04:37:24.310Z,6.10
2018-11-03T04:39:52.620Z,5.20
2018-11-03T04:42:20.904Z,7.23
2018-11-03T04:44:49.477Z,6.50
2018-11-03T04:47:17.935Z,6.30
2018-11-03T04:49:46.460Z,5.87
2018-11-03T04:52:14.936Z,6.30
2018-11-03T04:54:43.296Z,5.33
2018-11-03T04:57:11.612Z,7.97
2018-11-03T04:59:39.903Z,8.03
2018-11-03T05:02:08.270Z,10.33
2018-11-03T05:04:36.786Z,8.77
2018-11-03T05:07:05.544Z,8.57
2018-11-03T05:09:33.852Z,7.47
2018-11-03T05:12:03.165Z,6.03
2018-11-03T05:14:31.423Z,6.80
2018-11-03T05:16:59.800Z,6.03
2018-11-03T05:19:28.213Z,8.50
2018-11-03T05:21:56.768Z,6.97
2018-11-03T05:24:25.124Z,7.53
2018-11-03T05:26:53.413Z,7.03
2018-11-03T05:29:21.895Z,7.57
2018-11-03T05:31:50.224Z,12.23
2018-11-03T05:34:18.610Z,9.47
2018-11-03T05:36:46.968Z,7.10
2018-11-03T05:39:15.430Z,10.70
2018-11-03T05:41:44.014Z,8.67
2018-11-03T05:44:12.774Z,13.00
2018-11-03T05:46:41.416Z,11.07
2018-11-03T05:49:10.072Z,8.53
2018-11-03T05:51:38.692Z,8.90
2018-11-03T05:54:07.360Z,7.20
2018-11-03T05:56:35.984Z,11.67
2018-11-03T05:59:04.405Z,8.20
2018-11-03T06:01:32.704Z,7.43
2018-11-03T06:04:01.149Z,6.10
2018-11-03T06:06:29.484Z,7.03
2018-11-03T06:08:57.907Z,8.10
2018-11-03T06:11:26.224Z,9.23
2018-11-03T06:13:54.724Z,12.73
2018-11-03T06:16:23.101Z,11.50
2018-11-03T06:18:51.415Z,20.87
2018-11-03T06:21:20.005Z,15.17
2018-11-03T06:23:48.600Z,18.03
2018-11-03T06:26:16.904Z,14.33
2018-11-03T06:28:45.219Z,16.47
2018-11-03T06:31:13.543Z,12.30
2018-11-03T06:33:41.996Z,10.90
2018-11-03T06:36:10.430Z,17.37
2018-11-03T06:38:38.843Z,23.50
2018-11-03T06:41:07.175Z,15.50
2018-11-03T06:43:35.511Z,16.73
2018-11-03T06:46:03.903Z,10.93
2018-11-03T06:48:32.235Z,11.90
2018-11-03T06:51:00.583Z,11.60
2018-11-03T06:53:28.897Z,8.10
2018-11-03T06:55:57.205Z,8.07
2018-11-03T06:58:25.567Z,6.93
2018-11-03T07:00:53.873Z,7.33
2018-11-03T07:03:22.236Z,11.33
2018-11-03T07:05:50.656Z,8.93
2018-11-03T07:08:18.996Z,10.03
2018-11-03T07:10:47.331Z,18.30
2018-11-03T07:13:16.095Z,13.40
2018-11-03T07:15:44.321Z,10.47
2018-11-03T07:18:12.744Z,20.90
2018-11-03T07:20:41.305Z,8.53
2018-11-03T07:23:10.052Z,15.83
2018-11-03T07:25:38.635Z,10.83
2018-11-03T07:28:07.184Z,11.17
2018-11-03T07:30:35.518Z,8.40
2018-11-03T07:33:04.123Z,7.77
2018-11-03T07:35:32.467Z,10.03
2018-11-03T07:38:00.798Z,10.03
2018-11-03T07:40:29.084Z,13.07
2018-11-03T07:42:57.439Z,13.47
2018-11-03T07:45:25.827Z,9.40
2018-11-03T07:47:54.280Z,11.30
2018-11-03T07:50:22.563Z,7.67
2018-11-03T07:52:50.855Z,8.17
2018-11-03T07:55:19.219Z,11.70
2018-11-03T07:57:47.505Z,13.03
2018-11-03T08:00:16.092Z,14.37
2018-11-03T08:02:44.636Z,12.60
2018-11-03T08:05:13.265Z,10.87
2018-11-03T08:07:41.562Z,7.73
2018-11-03T08:10:11.348Z,17.67
2018-11-03T08:12:40.073Z,10.10
2018-11-03T08:15:09.610Z,13.17
2018-11-03T08:17:38.423Z,7.57
2018-11-03T08:20:08.377Z,9.43
2018-11-03T08:22:36.835Z,9.20
2018-11-03T08:25:05.924Z,7.87
2018-11-03T08:27:34.257Z,8.67
2018-11-03T08:30:02.563Z,10.57
2018-11-03T08:32:31.221Z,8.90
2018-11-03T08:34:59.591Z,9.47
2018-11-03T08:37:28.738Z,5.93
2018-11-03T08:39:57.324Z,12.50
2018-11-03T08:42:25.784Z,11.33
2018-11-03T08:44:54.335Z,10.37
2018-11-03T08:47:22.629Z,8.60
2018-11-03T08:49:51.097Z,6.90
2018-11-03T08:52:19.415Z,8.73
2018-11-03T08:54:47.760Z,6.53
2018-11-03T08:57:16.164Z,10.80
2018-11-03T08:59:44.653Z,6.73
2018-11-03T09:02:12.861Z,5.90
2018-11-03T09:04:41.228Z,9.80
2018-11-03T09:07:09.691Z,8.90
2018-11-03T09:09:37.945Z,5.17
2018-11-03T09:12:06.441Z,5.30
2018-11-03T09:14:34.895Z,6.37
2018-11-03T09:17:03.161Z,5.30
2018-11-03T09:19:31.504Z,6.33
2018-11-03T09:21:59.811Z,8.17
2018-11-03T09:24:28.231Z,4.97
2018-11-03T09:26:56.725Z,12.80
2018-11-03T09:29:25.024Z,4.80
2018-11-03T09:31:53.431Z,12.60
2018-11-03T09:34:21.774Z,9.37
2018-11-03T09:36:50.252Z,17.47
2018-11-03T09:39:18.688Z,5.80
2018-11-03T09:41:47.206Z,9.30
2018-11-03T09:44:15.604Z,8.37
2018-11-03T09:46:43.979Z,8.17
2018-11-03T09:49:12.308Z,11.30
2018-11-03T09:51:40.727Z,10.00
2018-11-03T09:54:09.079Z,8.83
2018-11-03T09:56:37.619Z,8.33
2018-11-03T09:59:05.868Z,9.77
2018-11-03T10:01:34.240Z,10.40
2018-11-03T10:04:02.557Z,11.30
2018-11-03T10:06:31.012Z,9.47
2018-11-03T10:08:59.339Z,11.87
2018-11-03T10:11:27.662Z,11.20
2018-11-03T10:13:55.992Z,10.13
2018-11-03T10:16:24.311Z,16.33
2018-11-03T10:18:52.722Z,15.93
2018-11-03T10:21:21.159Z,12.57
2018-11-03T10:23:49.456Z,10.57
2018-11-03T10:26:17.793Z,9.73
2018-11-03T10:28:46.295Z,13.20
2018-11-03T10:31:14.688Z,12.40
2018-11-03T10:33:43.193Z,13.13
2018-11-03T10:36:11.489Z,11.67
2018-11-03T10:38:39.988Z,13.03
2018-11-03T10:41:08.381Z,10.20
2018-11-03T10:43:36.902Z,11.53
2018-11-03T10:46:05.602Z,10.37
2018-11-03T10:48:33.956Z,10.57
2018-11-03T10:51:02.293Z,13.90
2018-11-03T10:53:30.652Z,10.80
2018-11-03T10:55:58.913Z,12.07
2018-11-03T10:58:27.276Z,10.30
2018-11-03T11:01:00.993Z,13.00
2018-11-03T11:03:34.718Z,10.93
2018-11-03T11:06:08.500Z,9.30
2018-11-03T11:08:42.209Z,10.40
2018-11-03T11:11:16.103Z,11.20
2018-11-03T11:13:45.033Z,10.07
2018-11-03T11:16:13.343Z,10.47
2018-11-03T11:18:41.724Z,9.77
2018-11-03T11:21:10.146Z,9.37
2018-11-03T11:23:38.657Z,12.00
2018-11-03T11:26:06.955Z,9.43
2018-11-03T11:28:35.272Z,9.30
2018-11-03T11:31:03.664Z,10.20
2018-11-03T11:33:32.021Z,10.53
2018-11-03T11:36:00.344Z,9.87
2018-11-03T11:38:28.749Z,9.43
2018-11-03T11:40:57.116Z,9.33
2018-11-03T11:43:25.444Z,10.03
2018-11-03T11:45:53.794Z,9.77
2018-11-03T11:48:22.163Z,9.97
2018-11-03T11:50:50.553Z,20.80
2018-11-03T11:53:18.952Z,9.57
2018-11-03T11:55:48.179Z,9.30
2018-11-03T11:58:16.534Z,9.27
2018-11-03T12:00:44.994Z,12.30
2018-11-03T12:03:13.271Z,9.93
2018-11-03T12:05:41.693Z,9.90
2018-11-03T12:08:10.108Z,12.13
2018-11-03T12:10:38.481Z,9.60
2018-11-03T12:13:07.047Z,18.37
2018-11-03T12:15:35.467Z,8.80
2018-11-03T12:18:03.845Z,15.33
2018-11-03T12:20:32.200Z,10.80
2018-11-03T12:23:00.711Z,10.17
2018-11-03T12:25:29.128Z,9.50
2018-11-03T12:27:57.399Z,11.13
2018-11-03T12:30:25.740Z,10.20
2018-11-03T12:32:54.089Z,11.17
2018-11-03T12:35:22.517Z,12.70
2018-11-03T12:37:50.826Z,9.20
2018-11-03T12:40:19.228Z,9.10
2018-11-03T12:42:47.612Z,8.87
2018-11-03T12:45:16.024Z,8.60
2018-11-03T12:47:44.409Z,8.57
2018-11-03T12:50:14.666Z,11.63
2018-11-03T12:52:43.288Z,9.90
2018-11-03T12:55:11.896Z,11.07
2018-11-03T12:57:41.006Z,8.93
2018-11-03T13:00:11.979Z,8.77
2018-11-03T13:02:41.283Z,8.53
2018-11-03T13:05:10.039Z,9.80
2018-11-03T13:07:39.459Z,9.70
2018-11-03T13:10:09.058Z,10.40
2018-11-03T13:12:38.342Z,9.40
2018-11-03T13:15:08.421Z,8.93
2018-11-03T13:17:37.356Z,9.47
2018-11-03T13:20:07.307Z,8.60
2018-11-03T13:22:35.795Z,8.40
2018-11-03T13:25:04.415Z,8.27
2018-11-03T13:27:32.765Z,8.50
2018-11-03T13:30:01.124Z,8.33
2018-11-03T13:32:29.496Z,7.77
2018-11-03T13:34:57.936Z,8.33
2018-11-03T13:37:26.172Z,8.80
2018-11-03T13:39:54.639Z,7.67
2018-11-03T13:42:22.931Z,8.10
2018-11-03T13:44:51.278Z,7.53
2018-11-03T13:47:19.729Z,8.30
2018-11-03T13:49:47.886Z,9.30
2018-11-03T13:52:16.264Z,9.03
2018-11-03T13:54:44.737Z,8.03
2018-11-03T13:57:13.109Z,13.53
2018-11-03T13:59:41.627Z,8.57
2018-11-03T14:02:09.967Z,9.67
2018-11-03T14:04:38.506Z,8.20
2018-11-03T14:07:07.033Z,9.47
2018-11-03T14:09:35.520Z,9.33
2018-11-03T14:12:03.891Z,9.80
2018-11-03T14:14:32.271Z,9.33
2018-11-03T14:17:00.783Z,10.40
2018-11-03T14:19:29.123Z,9.73
2018-11-03T14:21:57.610Z,10.43
2018-11-03T14:24:25.987Z,12.73
2018-11-03T14:26:54.399Z,13.57
2018-11-03T14:29:22.710Z,10.00
2018-11-03T14:31:51.036Z,10.37
2018-11-03T14:34:19.366Z,11.37
2018-11-03T14:36:47.700Z,10.50
2018-11-03T14:39:16.014Z,9.97
2018-11-03T14:41:44.376Z,9.77
2018-11-03T14:44:12.733Z,11.47
2018-11-03T14:46:41.357Z,10.50
2018-11-03T14:49:09.672Z,10.13
2018-11-03T14:51:38.010Z,10.67
2018-11-03T14:54:06.520Z,11.37
2018-11-03T14:56:34.915Z,12.50
2018-11-03T14:59:03.197Z,11.90
2018-11-03T15:01:31.516Z,14.43
2018-11-03T15:03:59.804Z,13.00
2018-11-03T15:06:28.462Z,12.03
2018-11-03T15:08:56.781Z,11.50
2018-11-03T15:11:25.123Z,10.33
2018-11-03T15:13:53.711Z,10.60
2018-11-03T15:16:21.928Z,10.23
2018-11-03T15:18:50.229Z,11.70
2018-11-03T15:21:19.299Z,10.33
2018-11-03T15:23:48.012Z,14.17
2018-11-03T15:26:16.374Z,11.67
2018-11-03T15:28:44.723Z,10.57
2018-11-03T15:31:13.172Z,11.67
2018-11-03T15:33:41.558Z,12.83
2018-11-03T15:36:10.205Z,10.33
2018-11-03T15:38:38.644Z,12.03
2018-11-03T15:41:07.035Z,16.00
2018-11-03T15:43:35.355Z,22.03
2018-11-03T15:46:03.643Z,19.13
2018-11-03T15:48:31.944Z,22.27
2018-11-03T15:51:00.267Z,24.13
2018-11-03T15:53:28.597Z,19.40
2018-11-03T15:55:56.887Z,15.13
2018-11-03T15:58:25.247Z,19.53
2018-11-03T16:00:53.614Z,19.73
2018-11-03T16:03:21.916Z,29.73
2018-11-03T16:05:50.244Z,29.27
2018-11-03T16:08:18.551Z,17.63
2018-11-03T16:10:46.886Z,22.53
2018-11-03T16:13:15.180Z,19.33
2018-11-03T16:15:43.451Z,18.53
2018-11-03T16:18:11.769Z,28.53
2018-11-03T16:20:40.178Z,18.43
2018-11-03T16:23:08.508Z,16.53
2018-11-03T16:25:36.920Z,20.00
2018-11-03T16:28:05.668Z,16.10
2018-11-03T16:30:33.969Z,14.93
2018-11-03T16:33:02.314Z,16.77
2018-11-03T16:35:30.645Z,16.03
2018-11-03T16:37:58.952Z,16.07
2018-11-03T16:40:27.243Z,13.67
2018-11-03T16:42:55.533Z,12.07
2018-11-03T16:45:23.848Z,13.40
2018-11-03T16:47:52.150Z,11.70
2018-11-03T16:50:20.491Z,11.90
2018-11-03T16:52:48.809Z,15.50
2018-11-03T16:55:17.227Z,13.50
2018-11-03T16:57:45.519Z,13.33
2018-11-03T17:00:14.923Z,16.27
2018-11-03T17:02:43.373Z,10.87
2018-11-03T17:05:12.934Z,13.67
2018-11-03T17:07:41.253Z,11.00
2018-11-03T17:10:11.981Z,10.77
2018-11-03T17:12:41.555Z,20.20
2018-11-03T17:15:10.087Z,10.57
2018-11-03T17:17:38.668Z,11.83
2018-11-03T17:20:07.641Z,18.07
2018-11-03T17:22:36.029Z,11.67
2018-11-03T17:25:04.688Z,10.53
2018-11-03T17:27:32.996Z,11.50
2018-11-03T17:30:01.304Z,11.83
2018-11-03T17:32:29.717Z,12.43
2018-11-03T17:34:58.043Z,16.20
2018-11-03T17:37:26.321Z,14.80
2018-11-03T17:39:54.682Z,15.60
2018-11-03T17:42:22.979Z,16.03
2018-11-03T17:44:51.321Z,13.50
2018-11-03T17:47:19.631Z,15.67
2018-11-03T17:49:47.946Z,12.03
2018-11-03T17:52:16.373Z,14.33
2018-11-03T17:54:44.846Z,23.00
2018-11-03T17:57:13.119Z,25.13
2018-11-03T17:59:41.575Z,12.20
2018-11-03T18:02:10.038Z,17.23
2018-11-03T18:04:38.458Z,18.00
2018-11-03T18:07:06.888Z,12.83
2018-11-03T18:09:35.241Z,17.60
2018-11-03T18:12:03.728Z,13.60
2018-11-03T18:14:32.086Z,14.03
2018-11-03T18:17:00.385Z,13.57
2018-11-03T18:19:28.721Z,11.67
2018-11-03T18:21:57.088Z,11.90
2018-11-03T18:24:25.598Z,12.57
2018-11-03T18:26:53.959Z,11.13
2018-11-03T18:29:22.272Z,12.07
2018-11-03T18:31:50.571Z,12.23
2018-11-03T18:34:18.922Z,15.97
2018-11-03T18:36:47.192Z,12.33
2018-11-03T18:39:15.522Z,15.73
2018-11-03T18:41:44.038Z,16.03
2018-11-03T18:44:12.260Z,17.73
2018-11-03T18:46:40.661Z,14.67
2018-11-03T18:49:08.879Z,13.27
2018-11-03T18:51:37.245Z,17.07
2018-11-03T18:54:05.835Z,20.73
2018-11-03T18:56:34.270Z,17.00
2018-11-03T18:59:02.593Z,26.20
2018-11-03T19:01:30.916Z,20.07
2018-11-03T19:03:59.311Z,20.03
2018-11-03T19:06:27.632Z,21.43
2018-11-03T19:08:55.954Z,21.73
2018-11-03T19:11:24.252Z,24.63
2018-11-03T19:13:52.537Z,17.83
2018-11-03T19:16:20.846Z,12.00
2018-11-03T19:18:49.152Z,15.20
2018-11-03T19:21:17.510Z,13.87
2018-11-03T19:23:46.213Z,26.27
2018-11-03T19:26:14.292Z,13.83
2018-11-03T19:28:42.582Z,26.20
2018-11-03T19:31:10.951Z,22.27
2018-11-03T19:33:39.467Z,14.30
2018-11-03T19:36:07.840Z,38.27
2018-11-03T19:38:36.177Z,24.97
2018-11-03T19:41:04.510Z,19.23
2018-11-03T19:43:34.077Z,24.23
2018-11-03T19:46:02.644Z,19.70
2018-11-03T19:48:30.925Z,21.57
2018-11-03T19:50:59.385Z,18.10
2018-11-03T19:53:27.665Z,21.43
2018-11-03T19:55:56.106Z,19.80
2018-11-03T19:58:24.332Z,25.17
2018-11-03T20:00:52.775Z,20.17
2018-11-03T20:03:21.188Z,19.37
2018-11-03T20:05:49.627Z,17.93
2018-11-03T20:08:18.268Z,24.37
2018-11-03T20:10:46.655Z,31.93
2018-11-03T20:13:14.978Z,25.87
2018-11-03T20:15:43.440Z,14.00
2018-11-03T20:18:11.796Z,13.93
2018-11-03T20:20:40.649Z,17.30
2018-11-03T20:23:09.000Z,14.90
2018-11-03T20:25:37.371Z,12.47
2018-11-03T20:28:05.956Z,12.43
2018-11-03T20:30:34.249Z,18.20
2018-11-03T20:33:02.605Z,13.93
2018-11-03T20:35:31.078Z,15.93
2018-11-03T20:37:59.489Z,14.83
2018-11-03T20:40:27.945Z,13.93
2018-11-03T20:42:56.548Z,12.30
2018-11-03T20:45:24.938Z,12.30
2018-11-03T20:47:53.289Z,11.57
2018-11-03T20:50:21.587Z,13.30
2018-11-03T20:52:49.894Z,11.07
2018-11-03T20:55:18.189Z,12.13
2018-11-03T20:57:46.504Z,11.93
2018-11-03T21:00:16.069Z,13.47
2018-11-03T21:02:45.299Z,12.73
2018-11-03T21:05:13.836Z,11.43
2018-11-03T21:07:43.071Z,10.50
2018-11-03T21:10:11.443Z,12.57
2018-11-03T21:12:39.878Z,10.97
2018-11-03T21:15:08.440Z,12.17
2018-11-03T21:17:36.964Z,13.07
2018-11-03T21:20:05.550Z,14.60
2018-11-03T21:22:34.002Z,12.17
2018-11-03T21:25:02.376Z,11.33
2018-11-03T21:27:30.703Z,11.03
2018-11-03T21:29:59.142Z,10.90
2018-11-03T21:32:27.508Z,10.47
2018-11-03T21:34:55.853Z,9.87
2018-11-03T21:37:24.181Z,11.57
2018-11-03T21:39:52.848Z,11.73
2018-11-03T21:42:21.183Z,11.13
2018-11-03T21:44:49.576Z,11.43
2018-11-03T21:47:17.921Z,11.87
2018-11-03T21:49:46.270Z,10.30
2018-11-03T21:52:14.563Z,11.87
2018-11-03T21:54:43.116Z,10.80
2018-11-03T21:57:11.460Z,9.97
2018-11-03T21:59:39.861Z,10.83
2018-11-03T22:02:08.208Z,10.57
2018-11-03T22:04:36.802Z,11.10
2018-11-03T22:07:05.437Z,13.30
2018-11-03T22:09:33.870Z,12.63
2018-11-03T22:12:02.232Z,12.53
2018-11-03T22:14:30.661Z,14.33
2018-11-03T22:16:59.324Z,9.53
2018-11-03T22:19:27.695Z,10.37
2018-11-03T22:21:55.995Z,11.50
2018-11-03T22:24:24.305Z,10.23
2018-11-03T22:26:52.599Z,12.47
2018-11-03T22:29:21.161Z,14.63
2018-11-03T22:31:49.572Z,10.73
2018-11-03T22:34:17.987Z,10.77
2018-11-03T22:36:46.326Z,12.13
2018-11-03T22:39:14.782Z,11.67
2018-11-03T22:41:43.087Z,12.93
2018-11-03T22:44:11.445Z,12.50
2018-11-03T22:46:39.738Z,12.57
2018-11-03T22:49:08.063Z,11.00
2018-11-03T22:51:36.471Z,11.73
2018-11-03T22:54:05.348Z,11.40
2018-11-03T22:56:33.667Z,14.60
2018-11-03T22:59:01.990Z,12.43
2018-11-03T23:01:30.400Z,10.80
2018-11-03T23:03:59.032Z,17.57
2018-11-03T23:06:27.671Z,11.60
2018-11-03T23:08:56.194Z,11.20
2018-11-03T23:11:24.603Z,11.97
2018-11-03T23:13:53.199Z,14.63
2018-11-03T23:16:21.427Z,12.63
2018-11-03T23:18:49.835Z,12.60
2018-11-03T23:21:18.132Z,10.73
2018-11-03T23:23:46.656Z,10.60
2018-11-03T23:26:15.003Z,12.07
2018-11-03T23:28:43.344Z,13.70
2018-11-03T23:31:11.806Z,11.93
2018-11-03T23:33:40.229Z,13.67
2018-11-03T23:36:08.868Z,12.83
2018-11-03T23:38:37.229Z,13.70
2018-11-03T23:41:05.606Z,15.47
2018-11-03T23:43:33.921Z,14.17
2018-11-03T23:46:02.257Z,13.13
2018-11-03T23:48:30.580Z,12.00
2018-11-03T23:50:58.895Z,14.50
2018-11-03T23:53:27.318Z,13.37
2018-11-03T23:55:55.626Z,13.77
2018-11-03T23:58:23.928Z,13.23
